CheckWX is a tool to help pilots better visualize weather data.  It is not intended as a substitute for an official pre-flight weather briefing.

14:23:57 UTC

RJNT METAR
Toyama Airport
Toyama, Japan
Current

2 hours ago

RJNT 211200Z VRB01KT 9999 FEW030 BKN/// 05/01 Q1031
Observed
Feb-21 @ 12:00 UTC
Wind
  • Variable at 1 KTS
Visibility
10,000+ meters
Flight Rules
VFR
Cloud Levels
  • Few at 3,000' AGL
Temperature
C / 41°F
Dewpoint
C / 34°F
Humidity
76%
Altimeter
30.44" Hg
Pressure
1030.92 hPa
Previous

3 hours ago

RJNT 211100Z VRB02KT 9999 FEW030 BKN/// 06/01 Q1032
Observed
Feb-21 @ 11:00 UTC
Wind
  • Variable at 2 KTS
Visibility
10,000+ meters
Flight Rules
VFR
Cloud Levels
  • Few at 3,000' AGL
Temperature
C / 43°F
Dewpoint
C / 34°F
Humidity
71%
Altimeter
30.47" Hg
Pressure
1031.92 hPa
Previous

4 hours ago

RJNT 211000Z VRB02KT 9999 FEW030 BKN/// 08/02 Q1032
Observed
Feb-21 @ 10:00 UTC
Wind
  • Variable at 2 KTS
Visibility
10,000+ meters
Flight Rules
VFR
Cloud Levels
  • Few at 3,000' AGL
Temperature
C / 46°F
Dewpoint
C / 36°F
Humidity
66%
Altimeter
30.47" Hg
Pressure
1031.92 hPa